Helena, MT (59601)

3:50 PM MDT on April 26, 2017 (GMT -0600)
Capital High | | Change Station

Elev 3871 ft 46.62 °N, 112.05 °W | Updated 18 seconds ago

Mostly Cloudy
Mostly Cloudy
51.3 °F
Feels Like 51.3 °F
N
6.0
Wind Variable Wind from WSW

Today
High -- | Low -- °F
--% Chance of Precip.
Yesterday
High -- | Low -- °F
Precip. -- in
Pressure 29.70 in
Visibility 10.0 miles
Clouds Few 3600 ft
Scattered Clouds 5500 ft
Mostly Cloudy 11000 ft
Dew Point 38 °F
Humidity 61%
Rainfall 0.02 in
Snow Depth Not available.
6:21 AM 8:31 PM
New Moon, 0% visible
METAR KHLN 262053Z 28012KT 10SM FEW036 SCT055 BKN110 10/06 A2964 RMK AO2 PK WND 27031/2021 WSHFT 2013 LTG DSNT E AND S RAB15E47 TSE41 SLP058 P0002 60002 T01000061 55009
Pressure 29.70 in
Visibility 10.0 miles
Clouds Few 3600 ft
Scattered Clouds 5500 ft
Mostly Cloudy 11000 ft
Dew Point 38 °F
Humidity 61%
Rainfall 0.02 in
Snow Depth Not available.
6:21 AM 8:31 PM
New Moon, 0% visible
METAR KHLN 262053Z 28012KT 10SM FEW036 SCT055 BKN110 10/06 A2964 RMK AO2 PK WND 27031/2021 WSHFT 2013 LTG DSNT E AND S RAB15E47 TSE41 SLP058 P0002 60002 T01000061 55009

Get Severe Weather Alerts

Thanks for signing up!

Be on the lookout for a verification email in your inbox.

You'll start receiving the daily forecast at 8 AM.

×

10-Day Weather Forecast

Almanac

Astronomy

Apr. 26, 2017 Rise Set
Actual Time
Civil Twilight
Nautical Twilight
Astronomical Twilight
Moon
Length of Visible Light
Length of Day
Tomorrow will be .
, % of the Moon is Illuminated

Today's Extremes

State Highs State Lows

Community

WunderPhotos

WunderBlog® & News

Nearby

Air Quality

  Air Quality AQ Index Pollutant
Not available.

Snow Depth

Station Depth Elevation

Earthquake Activity

City Distance Mag. Time & Date
Minimum magnitude displayed is 2.5.

Coastal Water Temperatures

Place Temperature

Stations

Nearby Weather Stations

Station Location Temp. Windchill Dew Point Humidity Wind Precip. Elev Updated Type
                   

Watches & Warnings

There are currently no watches in effect.